sensor_id;sensor_type;location;lat;lon;timestamp;P1;durP1;ratioP1;P2;durP2;ratioP2
79759;SDS011;70512;42.122;24.732;2023-06-24T00:01:44;11.70;;;8.43;;
79759;SDS011;70512;42.122;24.732;2023-06-24T00:04:12;13.00;;;8.80;;
79759;SDS011;70512;42.122;24.732;2023-06-24T00:06:40;12.18;;;7.92;;
79759;SDS011;70512;42.122;24.732;2023-06-24T00:09:08;13.20;;;9.05;;
79759;SDS011;70512;42.122;24.732;2023-06-24T00:11:36;10.43;;;8.55;;
79759;SDS011;70512;42.122;24.732;2023-06-24T00:14:03;15.50;;;8.28;;
79759;SDS011;70512;42.122;24.732;2023-06-24T00:16:32;9.48;;;8.58;;
79759;SDS011;70512;42.122;24.732;2023-06-24T00:19:01;9.83;;;7.92;;
79759;SDS011;70512;42.122;24.732;2023-06-24T00:21:29;17.62;;;8.13;;
79759;SDS011;70512;42.122;24.732;2023-06-24T00:23:57;12.78;;;8.75;;
79759;SDS011;70512;42.122;24.732;2023-06-24T00:26:27;14.83;;;8.45;;
79759;SDS011;70512;42.122;24.732;2023-06-24T00:28:55;12.28;;;8.55;;
79759;SDS011;70512;42.122;24.732;2023-06-24T00:31:22;12.53;;;8.60;;
79759;SDS011;70512;42.122;24.732;2023-06-24T00:33:50;9.50;;;8.43;;
79759;SDS011;70512;42.122;24.732;2023-06-24T00:36:20;11.60;;;8.60;;
79759;SDS011;70512;42.122;24.732;2023-06-24T00:38:47;9.80;;;8.83;;
79759;SDS011;70512;42.122;24.732;2023-06-24T00:41:16;9.15;;;8.28;;
79759;SDS011;70512;42.122;24.732;2023-06-24T00:43:47;11.20;;;8.58;;
79759;SDS011;70512;42.122;24.732;2023-06-24T00:46:15;11.90;;;8.25;;
79759;SDS011;70512;42.122;24.732;2023-06-24T00:48:44;9.93;;;8.93;;
79759;SDS011;70512;42.122;24.732;2023-06-24T00:51:12;11.53;;;8.88;;
79759;SDS011;70512;42.122;24.732;2023-06-24T00:53:39;9.83;;;8.15;;
79759;SDS011;70512;42.122;24.732;2023-06-24T00:56:07;9.58;;;7.95;;
79759;SDS011;70512;42.122;24.732;2023-06-24T00:58:35;10.05;;;8.38;;
79759;SDS011;70512;42.122;24.732;2023-06-24T01:01:05;13.78;;;9.50;;
79759;SDS011;70512;42.122;24.732;2023-06-24T01:03:34;10.10;;;9.10;;
79759;SDS011;70512;42.122;24.732;2023-06-24T01:06:03;9.30;;;8.10;;
79759;SDS011;70512;42.122;24.732;2023-06-24T01:08:31;10.43;;;8.00;;
79759;SDS011;70512;42.122;24.732;2023-06-24T01:10:59;11.60;;;7.90;;
79759;SDS011;70512;42.122;24.732;2023-06-24T01:13:27;9.70;;;7.87;;
79759;SDS011;70512;42.122;24.732;2023-06-24T01:15:55;9.90;;;8.13;;
79759;SDS011;70512;42.122;24.732;2023-06-24T01:32:06;12.30;;;7.97;;
79759;SDS011;70512;42.122;24.732;2023-06-24T01:34:42;18.32;;;7.60;;
79759;SDS011;70512;42.122;24.732;2023-06-24T01:37:19;12.05;;;7.05;;
79759;SDS011;70512;42.122;24.732;2023-06-24T01:39:56;11.93;;;7.65;;
79759;SDS011;70512;42.122;24.732;2023-06-24T01:42:42;14.10;;;7.30;;
79759;SDS011;70512;42.122;24.732;2023-06-24T01:45:17;9.95;;;7.22;;
79759;SDS011;70512;42.122;24.732;2023-06-24T01:47:48;15.38;;;7.75;;
79759;SDS011;70512;42.122;24.732;2023-06-24T01:50:19;10.23;;;7.83;;
79759;SDS011;70512;42.122;24.732;2023-06-24T01:52:48;9.33;;;7.62;;
79759;SDS011;70512;42.122;24.732;2023-06-24T01:55:19;12.73;;;8.63;;
79759;SDS011;70512;42.122;24.732;2023-06-24T01:57:53;10.55;;;7.15;;
79759;SDS011;70512;42.122;24.732;2023-06-24T02:00:18;9.05;;;7.00;;
79759;SDS011;70512;42.122;24.732;2023-06-24T02:02:48;10.23;;;6.85;;
79759;SDS011;70512;42.122;24.732;2023-06-24T02:05:18;16.70;;;8.15;;
79759;SDS011;70512;42.122;24.732;2023-06-24T02:07:48;9.60;;;7.67;;
79759;SDS011;70512;42.122;24.732;2023-06-24T02:10:21;10.58;;;8.18;;
79759;SDS011;70512;42.122;24.732;2023-06-24T02:12:49;23.30;;;8.60;;
79759;SDS011;70512;42.122;24.732;2023-06-24T02:15:18;12.93;;;7.70;;
79759;SDS011;70512;42.122;24.732;2023-06-24T02:17:51;12.23;;;7.45;;
79759;SDS011;70512;42.122;24.732;2023-06-24T02:20:21;8.63;;;6.55;;
79759;SDS011;70512;42.122;24.732;2023-06-24T02:22:53;8.50;;;7.03;;
79759;SDS011;70512;42.122;24.732;2023-06-24T02:25:23;13.80;;;8.20;;
79759;SDS011;70512;42.122;24.732;2023-06-24T02:27:53;8.83;;;7.28;;
79759;SDS011;70512;42.122;24.732;2023-06-24T02:30:22;11.22;;;7.62;;
79759;SDS011;70512;42.122;24.732;2023-06-24T02:32:51;10.95;;;7.03;;
79759;SDS011;70512;42.122;24.732;2023-06-24T02:35:25;11.50;;;8.05;;
79759;SDS011;70512;42.122;24.732;2023-06-24T02:37:49;10.28;;;8.00;;
79759;SDS011;70512;42.122;24.732;2023-06-24T02:40:18;12.80;;;8.15;;
79759;SDS011;70512;42.122;24.732;2023-06-24T02:42:47;9.53;;;7.60;;
79759;SDS011;70512;42.122;24.732;2023-06-24T02:45:17;10.88;;;9.03;;
79759;SDS011;70512;42.122;24.732;2023-06-24T02:47:47;9.90;;;7.62;;
79759;SDS011;70512;42.122;24.732;2023-06-24T02:50:15;11.63;;;8.00;;
79759;SDS011;70512;42.122;24.732;2023-06-24T02:52:43;10.58;;;7.37;;
79759;SDS011;70512;42.122;24.732;2023-06-24T02:55:11;14.93;;;7.67;;
79759;SDS011;70512;42.122;24.732;2023-06-24T02:57:41;9.48;;;7.80;;
79759;SDS011;70512;42.122;24.732;2023-06-24T03:00:10;14.83;;;8.20;;
79759;SDS011;70512;42.122;24.732;2023-06-24T03:02:39;10.60;;;7.37;;
79759;SDS011;70512;42.122;24.732;2023-06-24T03:05:11;9.53;;;7.25;;
79759;SDS011;70512;42.122;24.732;2023-06-24T03:07:39;10.90;;;8.03;;
79759;SDS011;70512;42.122;24.732;2023-06-24T03:10:08;11.57;;;7.50;;
79759;SDS011;70512;42.122;24.732;2023-06-24T03:12:41;12.33;;;8.03;;
79759;SDS011;70512;42.122;24.732;2023-06-24T03:15:08;13.70;;;8.48;;
79759;SDS011;70512;42.122;24.732;2023-06-24T03:17:39;13.20;;;8.20;;
79759;SDS011;70512;42.122;24.732;2023-06-24T03:20:07;11.40;;;8.05;;
79759;SDS011;70512;42.122;24.732;2023-06-24T03:22:37;10.35;;;8.35;;
79759;SDS011;70512;42.122;24.732;2023-06-24T03:25:06;10.55;;;8.73;;
79759;SDS011;70512;42.122;24.732;2023-06-24T03:27:34;11.70;;;7.47;;
79759;SDS011;70512;42.122;24.732;2023-06-24T03:30:03;10.45;;;7.75;;
79759;SDS011;70512;42.122;24.732;2023-06-24T03:32:32;11.20;;;7.42;;
79759;SDS011;70512;42.122;24.732;2023-06-24T03:35:02;11.93;;;8.15;;
79759;SDS011;70512;42.122;24.732;2023-06-24T03:37:32;10.23;;;8.55;;
79759;SDS011;70512;42.122;24.732;2023-06-24T03:40:01;12.88;;;7.87;;
79759;SDS011;70512;42.122;24.732;2023-06-24T03:42:31;9.90;;;8.00;;
79759;SDS011;70512;42.122;24.732;2023-06-24T03:44:58;12.35;;;8.33;;
79759;SDS011;70512;42.122;24.732;2023-06-24T03:47:26;15.53;;;7.45;;
79759;SDS011;70512;42.122;24.732;2023-06-24T03:49:55;10.63;;;8.50;;
79759;SDS011;70512;42.122;24.732;2023-06-24T03:52:25;17.52;;;8.30;;
79759;SDS011;70512;42.122;24.732;2023-06-24T03:54:52;14.70;;;8.80;;
79759;SDS011;70512;42.122;24.732;2023-06-24T03:57:20;13.20;;;8.75;;
79759;SDS011;70512;42.122;24.732;2023-06-24T03:59:48;13.95;;;8.43;;
79759;SDS011;70512;42.122;24.732;2023-06-24T04:02:15;9.78;;;7.20;;
79759;SDS011;70512;42.122;24.732;2023-06-24T04:04:45;15.43;;;8.65;;
79759;SDS011;70512;42.122;24.732;2023-06-24T04:07:14;11.25;;;8.65;;
79759;SDS011;70512;42.122;24.732;2023-06-24T04:09:43;9.68;;;8.38;;
79759;SDS011;70512;42.122;24.732;2023-06-24T04:12:16;18.98;;;8.78;;
79759;SDS011;70512;42.122;24.732;2023-06-24T04:14:40;12.00;;;7.55;;
79759;SDS011;70512;42.122;24.732;2023-06-24T04:17:08;12.70;;;7.97;;
79759;SDS011;70512;42.122;24.732;2023-06-24T04:19:36;13.58;;;7.37;;
79759;SDS011;70512;42.122;24.732;2023-06-24T04:22:05;11.43;;;8.25;;
79759;SDS011;70512;42.122;24.732;2023-06-24T04:24:32;10.88;;;7.05;;
79759;SDS011;70512;42.122;24.732;2023-06-24T04:27:00;12.25;;;8.23;;
79759;SDS011;70512;42.122;24.732;2023-06-24T04:29:28;13.65;;;6.97;;
79759;SDS011;70512;42.122;24.732;2023-06-24T04:31:55;17.87;;;7.97;;
79759;SDS011;70512;42.122;24.732;2023-06-24T04:34:23;11.20;;;7.85;;
79759;SDS011;70512;42.122;24.732;2023-06-24T04:36:52;13.72;;;7.60;;
79759;SDS011;70512;42.122;24.732;2023-06-24T04:39:22;8.98;;;7.40;;
79759;SDS011;70512;42.122;24.732;2023-06-24T04:41:50;9.03;;;7.22;;
79759;SDS011;70512;42.122;24.732;2023-06-24T04:44:19;14.03;;;8.13;;
79759;SDS011;70512;42.122;24.732;2023-06-24T04:46:48;11.75;;;7.80;;
79759;SDS011;70512;42.122;24.732;2023-06-24T04:49:17;9.80;;;7.83;;
79759;SDS011;70512;42.122;24.732;2023-06-24T04:51:46;11.03;;;8.10;;
79759;SDS011;70512;42.122;24.732;2023-06-24T04:54:14;10.70;;;7.47;;
79759;SDS011;70512;42.122;24.732;2023-06-24T04:56:41;9.58;;;8.25;;
79759;SDS011;70512;42.122;24.732;2023-06-24T04:59:11;11.97;;;7.92;;
79759;SDS011;70512;42.122;24.732;2023-06-24T05:01:38;20.77;;;9.43;;
79759;SDS011;70512;42.122;24.732;2023-06-24T05:04:06;11.40;;;7.95;;
79759;SDS011;70512;42.122;24.732;2023-06-24T05:06:35;10.72;;;8.25;;
79759;SDS011;70512;42.122;24.732;2023-06-24T05:09:02;12.68;;;7.80;;
79759;SDS011;70512;42.122;24.732;2023-06-24T05:11:31;11.20;;;7.20;;
79759;SDS011;70512;42.122;24.732;2023-06-24T05:13:59;11.12;;;7.95;;
79759;SDS011;70512;42.122;24.732;2023-06-24T05:16:29;12.13;;;8.57;;
79759;SDS011;70512;42.122;24.732;2023-06-24T05:18:57;14.15;;;8.53;;
79759;SDS011;70512;42.122;24.732;2023-06-24T05:21:24;16.67;;;8.13;;
79759;SDS011;70512;42.122;24.732;2023-06-24T05:23:54;11.45;;;8.08;;
79759;SDS011;70512;42.122;24.732;2023-06-24T05:26:21;14.90;;;8.85;;
79759;SDS011;70512;42.122;24.732;2023-06-24T05:28:50;16.55;;;9.58;;
79759;SDS011;70512;42.122;24.732;2023-06-24T05:31:18;16.23;;;7.80;;
79759;SDS011;70512;42.122;24.732;2023-06-24T05:33:47;11.03;;;7.78;;
79759;SDS011;70512;42.122;24.732;2023-06-24T05:36:15;13.15;;;7.87;;
79759;SDS011;70512;42.122;24.732;2023-06-24T05:38:45;18.95;;;10.35;;
79759;SDS011;70512;42.122;24.732;2023-06-24T05:41:16;20.20;;;10.18;;
79759;SDS011;70512;42.122;24.732;2023-06-24T05:43:44;18.70;;;10.10;;
79759;SDS011;70512;42.122;24.732;2023-06-24T05:46:13;11.18;;;9.55;;
79759;SDS011;70512;42.122;24.732;2023-06-24T05:48:41;12.93;;;9.45;;
79759;SDS011;70512;42.122;24.732;2023-06-24T05:51:09;11.50;;;9.20;;
79759;SDS011;70512;42.122;24.732;2023-06-24T05:53:37;14.63;;;8.78;;
79759;SDS011;70512;42.122;24.732;2023-06-24T05:56:05;13.93;;;9.25;;
79759;SDS011;70512;42.122;24.732;2023-06-24T05:58:35;15.10;;;9.40;;
79759;SDS011;70512;42.122;24.732;2023-06-24T06:01:03;19.48;;;10.08;;
79759;SDS011;70512;42.122;24.732;2023-06-24T06:03:31;15.53;;;10.20;;
79759;SDS011;70512;42.122;24.732;2023-06-24T06:05:59;13.05;;;9.58;;
79759;SDS011;70512;42.122;24.732;2023-06-24T06:08:26;14.40;;;9.70;;
79759;SDS011;70512;42.122;24.732;2023-06-24T06:10:54;10.35;;;9.23;;
79759;SDS011;70512;42.122;24.732;2023-06-24T06:13:21;19.55;;;10.60;;
79759;SDS011;70512;42.122;24.732;2023-06-24T06:15:49;19.85;;;10.10;;
79759;SDS011;70512;42.122;24.732;2023-06-24T06:18:17;11.43;;;9.23;;
79759;SDS011;70512;42.122;24.732;2023-06-24T06:20:44;13.03;;;9.73;;
79759;SDS011;70512;42.122;24.732;2023-06-24T06:23:12;14.40;;;12.45;;
79759;SDS011;70512;42.122;24.732;2023-06-24T06:25:44;12.78;;;10.93;;
79759;SDS011;70512;42.122;24.732;2023-06-24T06:28:11;21.65;;;12.73;;
79759;SDS011;70512;42.122;24.732;2023-06-24T06:30:39;13.08;;;10.23;;
79759;SDS011;70512;42.122;24.732;2023-06-24T06:33:07;12.78;;;10.95;;
79759;SDS011;70512;42.122;24.732;2023-06-24T06:35:35;11.25;;;10.13;;
79759;SDS011;70512;42.122;24.732;2023-06-24T06:38:04;17.10;;;13.25;;
79759;SDS011;70512;42.122;24.732;2023-06-24T06:40:32;17.15;;;12.07;;
79759;SDS011;70512;42.122;24.732;2023-06-24T06:43:09;17.70;;;13.22;;
79759;SDS011;70512;42.122;24.732;2023-06-24T06:45:34;17.25;;;12.70;;
79759;SDS011;70512;42.122;24.732;2023-06-24T06:48:02;19.95;;;14.28;;
79759;SDS011;70512;42.122;24.732;2023-06-24T06:50:31;19.20;;;13.90;;
79759;SDS011;70512;42.122;24.732;2023-06-24T06:52:59;17.17;;;12.65;;
79759;SDS011;70512;42.122;24.732;2023-06-24T06:55:27;17.48;;;11.85;;
79759;SDS011;70512;42.122;24.732;2023-06-24T06:57:55;12.88;;;10.68;;
79759;SDS011;70512;42.122;24.732;2023-06-24T07:00:22;14.38;;;11.20;;
79759;SDS011;70512;42.122;24.732;2023-06-24T07:02:50;15.83;;;12.30;;
79759;SDS011;70512;42.122;24.732;2023-06-24T07:05:20;22.42;;;13.03;;
79759;SDS011;70512;42.122;24.732;2023-06-24T07:07:49;18.35;;;11.35;;
79759;SDS011;70512;42.122;24.732;2023-06-24T07:10:16;13.83;;;10.75;;
79759;SDS011;70512;42.122;24.732;2023-06-24T07:12:45;16.00;;;11.30;;
79759;SDS011;70512;42.122;24.732;2023-06-24T07:15:13;13.32;;;10.68;;
79759;SDS011;70512;42.122;24.732;2023-06-24T07:17:43;14.03;;;11.33;;
79759;SDS011;70512;42.122;24.732;2023-06-24T07:20:10;13.03;;;10.18;;
79759;SDS011;70512;42.122;24.732;2023-06-24T07:22:38;17.10;;;10.98;;
79759;SDS011;70512;42.122;24.732;2023-06-24T07:25:07;12.28;;;9.60;;
79759;SDS011;70512;42.122;24.732;2023-06-24T07:27:36;17.87;;;10.65;;
79759;SDS011;70512;42.122;24.732;2023-06-24T07:30:04;14.78;;;11.10;;
79759;SDS011;70512;42.122;24.732;2023-06-24T07:32:32;12.98;;;10.40;;
79759;SDS011;70512;42.122;24.732;2023-06-24T07:34:59;14.30;;;10.40;;
79759;SDS011;70512;42.122;24.732;2023-06-24T07:37:27;13.15;;;10.20;;
79759;SDS011;70512;42.122;24.732;2023-06-24T07:39:55;11.20;;;9.83;;
79759;SDS011;70512;42.122;24.732;2023-06-24T07:42:23;13.43;;;9.50;;
79759;SDS011;70512;42.122;24.732;2023-06-24T07:44:50;13.32;;;9.68;;
79759;SDS011;70512;42.122;24.732;2023-06-24T07:47:18;13.93;;;9.05;;
79759;SDS011;70512;42.122;24.732;2023-06-24T07:49:46;12.00;;;9.73;;
79759;SDS011;70512;42.122;24.732;2023-06-24T07:52:13;10.75;;;9.60;;
79759;SDS011;70512;42.122;24.732;2023-06-24T07:54:41;17.55;;;9.80;;
79759;SDS011;70512;42.122;24.732;2023-06-24T07:57:09;11.57;;;10.08;;
79759;SDS011;70512;42.122;24.732;2023-06-24T07:59:36;11.88;;;9.70;;
79759;SDS011;70512;42.122;24.732;2023-06-24T08:02:05;11.75;;;10.55;;
79759;SDS011;70512;42.122;24.732;2023-06-24T08:04:37;15.88;;;10.72;;
79759;SDS011;70512;42.122;24.732;2023-06-24T08:07:02;13.93;;;9.95;;
79759;SDS011;70512;42.122;24.732;2023-06-24T08:09:30;15.32;;;9.25;;
79759;SDS011;70512;42.122;24.732;2023-06-24T08:11:58;12.43;;;9.28;;
79759;SDS011;70512;42.122;24.732;2023-06-24T08:14:30;11.60;;;9.48;;
79759;SDS011;70512;42.122;24.732;2023-06-24T08:16:58;24.37;;;10.68;;
79759;SDS011;70512;42.122;24.732;2023-06-24T08:19:25;11.93;;;9.73;;
79759;SDS011;70512;42.122;24.732;2023-06-24T08:21:53;13.58;;;9.68;;
79759;SDS011;70512;42.122;24.732;2023-06-24T08:24:21;10.05;;;8.63;;
79759;SDS011;70512;42.122;24.732;2023-06-24T08:26:50;19.10;;;9.40;;
79759;SDS011;70512;42.122;24.732;2023-06-24T08:29:18;17.52;;;9.33;;
79759;SDS011;70512;42.122;24.732;2023-06-24T08:31:49;17.35;;;9.45;;
79759;SDS011;70512;42.122;24.732;2023-06-24T08:34:16;13.45;;;8.10;;
79759;SDS011;70512;42.122;24.732;2023-06-24T08:36:44;12.68;;;8.05;;
79759;SDS011;70512;42.122;24.732;2023-06-24T08:39:12;20.37;;;8.45;;
79759;SDS011;70512;42.122;24.732;2023-06-24T08:41:39;15.35;;;10.93;;
79759;SDS011;70512;42.122;24.732;2023-06-24T08:44:07;11.22;;;8.63;;
79759;SDS011;70512;42.122;24.732;2023-06-24T08:46:34;11.48;;;8.60;;
79759;SDS011;70512;42.122;24.732;2023-06-24T08:49:05;12.00;;;8.33;;
79759;SDS011;70512;42.122;24.732;2023-06-24T08:51:58;15.03;;;9.18;;
79759;SDS011;70512;42.122;24.732;2023-06-24T08:54:22;12.25;;;8.08;;
79759;SDS011;70512;42.122;24.732;2023-06-24T08:56:51;8.60;;;7.67;;
79759;SDS011;70512;42.122;24.732;2023-06-24T08:59:21;9.13;;;8.23;;
79759;SDS011;70512;42.122;24.732;2023-06-24T09:01:52;11.78;;;8.55;;
79759;SDS011;70512;42.122;24.732;2023-06-24T09:04:21;11.45;;;7.92;;
79759;SDS011;70512;42.122;24.732;2023-06-24T09:06:54;10.10;;;7.95;;
79759;SDS011;70512;42.122;24.732;2023-06-24T09:09:18;13.90;;;8.38;;
79759;SDS011;70512;42.122;24.732;2023-06-24T09:11:51;9.85;;;8.20;;
79759;SDS011;70512;42.122;24.732;2023-06-24T09:14:28;9.83;;;8.00;;
79759;SDS011;70512;42.122;24.732;2023-06-24T09:19:25;9.38;;;7.40;;
79759;SDS011;70512;42.122;24.732;2023-06-24T09:22:01;12.10;;;8.03;;
79759;SDS011;70512;42.122;24.732;2023-06-24T09:24:30;10.70;;;8.23;;
79759;SDS011;70512;42.122;24.732;2023-06-24T09:26:58;13.68;;;9.15;;
79759;SDS011;70512;42.122;24.732;2023-06-24T09:29:27;15.53;;;8.40;;
79759;SDS011;70512;42.122;24.732;2023-06-24T09:31:59;13.28;;;8.98;;
79759;SDS011;70512;42.122;24.732;2023-06-24T09:34:28;12.40;;;9.15;;
79759;SDS011;70512;42.122;24.732;2023-06-24T09:36:58;11.65;;;9.05;;
79759;SDS011;70512;42.122;24.732;2023-06-24T09:39:27;11.85;;;8.35;;
79759;SDS011;70512;42.122;24.732;2023-06-24T09:41:56;14.87;;;8.60;;
79759;SDS011;70512;42.122;24.732;2023-06-24T09:44:29;12.20;;;9.48;;
79759;SDS011;70512;42.122;24.732;2023-06-24T09:46:57;11.93;;;8.40;;
79759;SDS011;70512;42.122;24.732;2023-06-24T09:49:26;11.85;;;8.68;;
79759;SDS011;70512;42.122;24.732;2023-06-24T09:51:56;12.30;;;8.10;;
79759;SDS011;70512;42.122;24.732;2023-06-24T09:54:26;8.63;;;7.67;;
79759;SDS011;70512;42.122;24.732;2023-06-24T09:56:55;18.50;;;14.00;;
79759;SDS011;70512;42.122;24.732;2023-06-24T09:59:25;10.20;;;8.15;;
79759;SDS011;70512;42.122;24.732;2023-06-24T10:01:54;12.28;;;8.33;;
79759;SDS011;70512;42.122;24.732;2023-06-24T10:04:23;12.50;;;7.97;;
79759;SDS011;70512;42.122;24.732;2023-06-24T10:06:53;9.45;;;8.45;;
79759;SDS011;70512;42.122;24.732;2023-06-24T10:09:21;10.75;;;6.97;;
79759;SDS011;70512;42.122;24.732;2023-06-24T10:11:51;9.23;;;7.17;;
79759;SDS011;70512;42.122;24.732;2023-06-24T10:14:19;7.95;;;7.15;;
79759;SDS011;70512;42.122;24.732;2023-06-24T10:16:46;13.08;;;7.75;;
79759;SDS011;70512;42.122;24.732;2023-06-24T10:19:19;11.10;;;8.10;;
79759;SDS011;70512;42.122;24.732;2023-06-24T10:21:53;10.03;;;9.03;;
79759;SDS011;70512;42.122;24.732;2023-06-24T10:24:29;13.25;;;8.38;;
79759;SDS011;70512;42.122;24.732;2023-06-24T10:27:03;14.25;;;6.95;;
79759;SDS011;70512;42.122;24.732;2023-06-24T10:29:36;9.83;;;7.65;;
79759;SDS011;70512;42.122;24.732;2023-06-24T10:37:17;10.25;;;9.08;;
79759;SDS011;70512;42.122;24.732;2023-06-24T10:44:57;12.90;;;9.45;;
79759;SDS011;70512;42.122;24.732;2023-06-24T10:50:10;13.98;;;9.55;;
79759;SDS011;70512;42.122;24.732;2023-06-24T10:52:43;11.60;;;8.63;;
79759;SDS011;70512;42.122;24.732;2023-06-24T10:55:13;11.38;;;8.58;;
79759;SDS011;70512;42.122;24.732;2023-06-24T10:57:42;10.15;;;7.95;;
79759;SDS011;70512;42.122;24.732;2023-06-24T11:00:10;14.30;;;9.00;;
79759;SDS011;70512;42.122;24.732;2023-06-24T11:02:41;9.53;;;8.63;;
79759;SDS011;70512;42.122;24.732;2023-06-24T11:05:08;11.55;;;8.33;;
79759;SDS011;70512;42.122;24.732;2023-06-24T11:07:37;9.60;;;8.65;;
79759;SDS011;70512;42.122;24.732;2023-06-24T11:10:07;12.07;;;10.20;;
79759;SDS011;70512;42.122;24.732;2023-06-24T11:12:37;16.70;;;8.85;;
79759;SDS011;70512;42.122;24.732;2023-06-24T11:15:07;12.68;;;9.33;;
79759;SDS011;70512;42.122;24.732;2023-06-24T11:17:36;10.13;;;8.10;;
79759;SDS011;70512;42.122;24.732;2023-06-24T11:20:08;8.43;;;7.72;;
79759;SDS011;70512;42.122;24.732;2023-06-24T11:22:37;10.80;;;7.40;;
79759;SDS011;70512;42.122;24.732;2023-06-24T11:25:15;8.98;;;8.15;;
79759;SDS011;70512;42.122;24.732;2023-06-24T11:27:44;12.93;;;8.38;;
79759;SDS011;70512;42.122;24.732;2023-06-24T11:30:12;8.68;;;7.50;;
79759;SDS011;70512;42.122;24.732;2023-06-24T11:32:41;8.95;;;8.20;;
79759;SDS011;70512;42.122;24.732;2023-06-24T11:35:10;14.40;;;13.20;;
79759;SDS011;70512;42.122;24.732;2023-06-24T11:37:46;8.80;;;8.05;;
79759;SDS011;70512;42.122;24.732;2023-06-24T11:40:11;9.90;;;7.50;;
79759;SDS011;70512;42.122;24.732;2023-06-24T11:42:42;7.20;;;6.60;;
79759;SDS011;70512;42.122;24.732;2023-06-24T11:45:11;7.60;;;6.90;;
79759;SDS011;70512;42.122;24.732;2023-06-24T11:47:43;7.05;;;6.45;;
79759;SDS011;70512;42.122;24.732;2023-06-24T11:50:10;7.67;;;7.05;;
79759;SDS011;70512;42.122;24.732;2023-06-24T11:52:38;14.50;;;7.25;;
79759;SDS011;70512;42.122;24.732;2023-06-24T11:55:11;8.88;;;8.05;;
79759;SDS011;70512;42.122;24.732;2023-06-24T11:57:58;7.90;;;7.15;;
79759;SDS011;70512;42.122;24.732;2023-06-24T12:00:34;9.08;;;8.03;;
79759;SDS011;70512;42.122;24.732;2023-06-24T12:03:09;9.60;;;7.65;;
79759;SDS011;70512;42.122;24.732;2023-06-24T12:05:38;8.48;;;7.83;;
79759;SDS011;70512;42.122;24.732;2023-06-24T12:08:10;12.53;;;8.88;;
79759;SDS011;70512;42.122;24.732;2023-06-24T12:10:39;8.33;;;7.62;;
79759;SDS011;70512;42.122;24.732;2023-06-24T12:13:07;11.33;;;8.30;;
79759;SDS011;70512;42.122;24.732;2023-06-24T12:15:34;9.28;;;8.08;;
79759;SDS011;70512;42.122;24.732;2023-06-24T12:18:03;8.10;;;7.50;;
79759;SDS011;70512;42.122;24.732;2023-06-24T12:20:31;8.45;;;7.75;;
79759;SDS011;70512;42.122;24.732;2023-06-24T12:23:00;8.38;;;7.72;;
79759;SDS011;70512;42.122;24.732;2023-06-24T12:25:29;9.25;;;8.58;;
79759;SDS011;70512;42.122;24.732;2023-06-24T12:27:57;11.08;;;9.85;;
79759;SDS011;70512;42.122;24.732;2023-06-24T12:30:28;8.78;;;7.97;;
79759;SDS011;70512;42.122;24.732;2023-06-24T12:32:56;10.72;;;8.43;;
79759;SDS011;70512;42.122;24.732;2023-06-24T12:35:23;8.95;;;7.95;;
79759;SDS011;70512;42.122;24.732;2023-06-24T12:37:51;8.98;;;8.18;;
79759;SDS011;70512;42.122;24.732;2023-06-24T12:40:19;8.83;;;8.03;;
79759;SDS011;70512;42.122;24.732;2023-06-24T12:42:47;8.10;;;7.45;;
79759;SDS011;70512;42.122;24.732;2023-06-24T12:45:14;9.40;;;8.23;;
79759;SDS011;70512;42.122;24.732;2023-06-24T12:47:42;8.93;;;8.23;;
79759;SDS011;70512;42.122;24.732;2023-06-24T12:50:10;15.03;;;8.88;;
79759;SDS011;70512;42.122;24.732;2023-06-24T12:52:38;12.28;;;11.25;;
79759;SDS011;70512;42.122;24.732;2023-06-24T12:55:06;9.73;;;8.90;;
79759;SDS011;70512;42.122;24.732;2023-06-24T12:57:35;9.20;;;7.55;;
79759;SDS011;70512;42.122;24.732;2023-06-24T13:02:31;9.53;;;8.38;;
79759;SDS011;70512;42.122;24.732;2023-06-24T13:04:58;7.95;;;7.00;;
79759;SDS011;70512;42.122;24.732;2023-06-24T13:07:26;8.85;;;7.87;;
79759;SDS011;70512;42.122;24.732;2023-06-24T13:09:54;10.28;;;7.83;;
79759;SDS011;70512;42.122;24.732;2023-06-24T13:12:21;8.43;;;7.77;;
79759;SDS011;70512;42.122;24.732;2023-06-24T13:14:49;8.43;;;7.73;;
79759;SDS011;70512;42.122;24.732;2023-06-24T13:17:17;8.83;;;7.93;;
79759;SDS011;70512;42.122;24.732;2023-06-24T13:19:44;8.48;;;7.75;;
79759;SDS011;70512;42.122;24.732;2023-06-24T13:22:12;10.20;;;8.55;;
79759;SDS011;70512;42.122;24.732;2023-06-24T13:24:39;9.30;;;8.13;;
79759;SDS011;70512;42.122;24.732;2023-06-24T13:27:07;8.23;;;7.45;;
79759;SDS011;70512;42.122;24.732;2023-06-24T13:29:35;11.35;;;9.10;;
79759;SDS011;70512;42.122;24.732;2023-06-24T13:32:03;7.80;;;7.08;;
79759;SDS011;70512;42.122;24.732;2023-06-24T13:34:31;7.12;;;6.53;;
79759;SDS011;70512;42.122;24.732;2023-06-24T13:36:58;11.48;;;7.62;;
79759;SDS011;70512;42.122;24.732;2023-06-24T13:39:26;6.85;;;6.15;;
79759;SDS011;70512;42.122;24.732;2023-06-24T13:41:53;7.65;;;6.90;;
79759;SDS011;70512;42.122;24.732;2023-06-24T13:44:23;7.50;;;6.80;;
79759;SDS011;70512;42.122;24.732;2023-06-24T13:46:50;10.70;;;7.75;;
79759;SDS011;70512;42.122;24.732;2023-06-24T13:49:19;13.98;;;8.38;;
79759;SDS011;70512;42.122;24.732;2023-06-24T13:51:47;7.28;;;6.67;;
79759;SDS011;70512;42.122;24.732;2023-06-24T13:54:14;11.60;;;8.13;;
79759;SDS011;70512;42.122;24.732;2023-06-24T13:56:42;8.68;;;7.45;;
79759;SDS011;70512;42.122;24.732;2023-06-24T13:59:09;8.03;;;7.10;;
79759;SDS011;70512;42.122;24.732;2023-06-24T14:01:37;7.42;;;6.60;;
79759;SDS011;70512;42.122;24.732;2023-06-24T14:04:04;11.68;;;7.25;;
79759;SDS011;70512;42.122;24.732;2023-06-24T14:06:32;8.95;;;7.37;;
79759;SDS011;70512;42.122;24.732;2023-06-24T14:09:00;8.50;;;7.15;;
79759;SDS011;70512;42.122;24.732;2023-06-24T14:11:28;7.67;;;6.97;;
79759;SDS011;70512;42.122;24.732;2023-06-24T14:13:55;8.93;;;7.30;;
79759;SDS011;70512;42.122;24.732;2023-06-24T14:16:23;9.70;;;7.47;;
79759;SDS011;70512;42.122;24.732;2023-06-24T14:18:50;8.35;;;7.60;;
79759;SDS011;70512;42.122;24.732;2023-06-24T14:21:18;9.43;;;7.30;;
79759;SDS011;70512;42.122;24.732;2023-06-24T14:23:46;13.68;;;12.13;;
79759;SDS011;70512;42.122;24.732;2023-06-24T14:26:13;8.55;;;7.87;;
79759;SDS011;70512;42.122;24.732;2023-06-24T14:28:41;10.63;;;7.47;;
79759;SDS011;70512;42.122;24.732;2023-06-24T14:31:09;9.30;;;6.78;;
79759;SDS011;70512;42.122;24.732;2023-06-24T14:33:36;10.78;;;7.20;;
79759;SDS011;70512;42.122;24.732;2023-06-24T14:36:04;8.00;;;7.20;;
79759;SDS011;70512;42.122;24.732;2023-06-24T14:38:31;10.55;;;7.55;;
79759;SDS011;70512;42.122;24.732;2023-06-24T14:40:59;9.38;;;7.47;;
79759;SDS011;70512;42.122;24.732;2023-06-24T14:43:27;8.63;;;7.10;;
79759;SDS011;70512;42.122;24.732;2023-06-24T14:45:55;7.08;;;6.35;;
79759;SDS011;70512;42.122;24.732;2023-06-24T14:48:23;8.30;;;6.95;;
79759;SDS011;70512;42.122;24.732;2023-06-24T14:50:51;11.18;;;7.22;;
79759;SDS011;70512;42.122;24.732;2023-06-24T14:53:18;9.45;;;7.00;;
79759;SDS011;70512;42.122;24.732;2023-06-24T14:55:46;9.80;;;7.00;;
79759;SDS011;70512;42.122;24.732;2023-06-24T14:58:14;7.10;;;6.40;;
79759;SDS011;70512;42.122;24.732;2023-06-24T15:00:41;11.12;;;7.47;;
79759;SDS011;70512;42.122;24.732;2023-06-24T15:03:09;8.13;;;7.22;;
79759;SDS011;70512;42.122;24.732;2023-06-24T15:05:38;9.20;;;7.20;;